Palmeira dos Indios, Brazil
Current Conditions -  °F | °C
As of 7:00 PM on Tuesday 21 Oct 2014 (Local Time) from SBMO Reporting Station
Scattered Clouds Scattered Clouds  
Wind Chill: 23°   Ceiling: Unl
Heat Index: 23°   Visibility: 6mi
Dew Point: 20°   Wind: 7mph
Humidity: 83%   Direction: 130°SE
Pressure: 29.97"   Gusts: NA
Location:  9.41°S, 36.63°W
Report Text: SBMO 212200Z 13006KT 9999 SCT020 23/20 Q1015
Loading
Personal Weather Stations






























Interactive Weather Map
Tropical Storm Tracking
New forecast layout! Learn more

10-Day Weather Forecast

Advertisements
Track Severe Weather on mobile